sensor_id;sensor_type;location;lat;lon;timestamp;temperature;humidity
7564;DHT22;3823;53.586;10.040;2023-02-15T00:01:31;5.30;1.00
7564;DHT22;3823;53.586;10.040;2023-02-15T00:03:57;5.40;1.00
7564;DHT22;3823;53.586;10.040;2023-02-15T00:06:23;5.30;1.00
7564;DHT22;3823;53.586;10.040;2023-02-15T00:08:49;5.40;1.00
7564;DHT22;3823;53.586;10.040;2023-02-15T00:11:16;5.50;1.00
7564;DHT22;3823;53.586;10.040;2023-02-15T00:13:42;5.50;1.00
7564;DHT22;3823;53.586;10.040;2023-02-15T00:16:10;5.40;1.00
7564;DHT22;3823;53.586;10.040;2023-02-15T00:18:36;5.50;1.00
7564;DHT22;3823;53.586;10.040;2023-02-15T00:21:09;5.50;1.00
7564;DHT22;3823;53.586;10.040;2023-02-15T00:23:36;5.50;1.00
7564;DHT22;3823;53.586;10.040;2023-02-15T00:26:10;5.50;1.00
7564;DHT22;3823;53.586;10.040;2023-02-15T00:28:36;5.50;1.00
7564;DHT22;3823;53.586;10.040;2023-02-15T00:31:08;5.40;1.00
7564;DHT22;3823;53.586;10.040;2023-02-15T00:33:34;5.40;1.00
7564;DHT22;3823;53.586;10.040;2023-02-15T00:36:01;5.40;1.00
7564;DHT22;3823;53.586;10.040;2023-02-15T00:38:28;5.40;1.00
7564;DHT22;3823;53.586;10.040;2023-02-15T00:40:55;5.40;1.00
7564;DHT22;3823;53.586;10.040;2023-02-15T00:43:21;5.50;1.00
7564;DHT22;3823;53.586;10.040;2023-02-15T00:45:47;5.40;1.00
7564;DHT22;3823;53.586;10.040;2023-02-15T00:48:12;5.50;1.00
7564;DHT22;3823;53.586;10.040;2023-02-15T00:50:38;5.60;1.00
7564;DHT22;3823;53.586;10.040;2023-02-15T00:53:03;5.40;1.00
7564;DHT22;3823;53.586;10.040;2023-02-15T00:55:29;5.50;1.00
7564;DHT22;3823;53.586;10.040;2023-02-15T00:57:55;5.60;1.00
7564;DHT22;3823;53.586;10.040;2023-02-15T01:00:20;5.60;1.00
7564;DHT22;3823;53.586;10.040;2023-02-15T01:02:46;5.50;1.00
7564;DHT22;3823;53.586;10.040;2023-02-15T01:05:11;5.40;1.00
7564;DHT22;3823;53.586;10.040;2023-02-15T01:07:37;5.40;1.00
7564;DHT22;3823;53.586;10.040;2023-02-15T01:10:05;5.30;1.00
7564;DHT22;3823;53.586;10.040;2023-02-15T01:12:31;5.30;1.00
7564;DHT22;3823;53.586;10.040;2023-02-15T01:14:56;5.30;1.00
7564;DHT22;3823;53.586;10.040;2023-02-15T01:17:22;5.30;1.00
7564;DHT22;3823;53.586;10.040;2023-02-15T01:19:47;5.30;1.00
7564;DHT22;3823;53.586;10.040;2023-02-15T01:22:13;5.30;1.00
7564;DHT22;3823;53.586;10.040;2023-02-15T01:24:38;5.40;1.00
7564;DHT22;3823;53.586;10.040;2023-02-15T01:27:04;5.40;1.00
7564;DHT22;3823;53.586;10.040;2023-02-15T01:29:29;5.50;1.00
7564;DHT22;3823;53.586;10.040;2023-02-15T01:31:55;5.60;1.00
7564;DHT22;3823;53.586;10.040;2023-02-15T01:34:20;5.50;1.00
7564;DHT22;3823;53.586;10.040;2023-02-15T01:36:46;5.40;1.00
7564;DHT22;3823;53.586;10.040;2023-02-15T01:39:12;5.40;1.00
7564;DHT22;3823;53.586;10.040;2023-02-15T01:41:37;5.40;1.00
7564;DHT22;3823;53.586;10.040;2023-02-15T01:44:03;5.50;1.00
7564;DHT22;3823;53.586;10.040;2023-02-15T01:46:52;5.50;1.00
7564;DHT22;3823;53.586;10.040;2023-02-15T01:49:20;5.50;1.00
7564;DHT22;3823;53.586;10.040;2023-02-15T01:51:51;5.50;1.00
7564;DHT22;3823;53.586;10.040;2023-02-15T01:56:50;5.20;1.00
7564;DHT22;3823;53.586;10.040;2023-02-15T01:59:19;5.20;1.00
7564;DHT22;3823;53.586;10.040;2023-02-15T02:01:45;5.20;1.00
7564;DHT22;3823;53.586;10.040;2023-02-15T02:07:06;5.30;1.00
7564;DHT22;3823;53.586;10.040;2023-02-15T02:09:32;5.30;1.00
7564;DHT22;3823;53.586;10.040;2023-02-15T02:11:58;5.30;1.00
7564;DHT22;3823;53.586;10.040;2023-02-15T02:14:24;5.40;1.00
7564;DHT22;3823;53.586;10.040;2023-02-15T02:17:00;5.30;1.00
7564;DHT22;3823;53.586;10.040;2023-02-15T02:30:37;5.30;1.00
7564;DHT22;3823;53.586;10.040;2023-02-15T02:44:04;5.20;1.00
7564;DHT22;3823;53.586;10.040;2023-02-15T02:46:50;5.30;1.00
7564;DHT22;3823;53.586;10.040;2023-02-15T02:49:16;5.40;1.00
7564;DHT22;3823;53.586;10.040;2023-02-15T02:51:42;5.30;1.00
7564;DHT22;3823;53.586;10.040;2023-02-15T02:54:08;5.10;1.00
7564;DHT22;3823;53.586;10.040;2023-02-15T02:56:40;5.10;1.00
7564;DHT22;3823;53.586;10.040;2023-02-15T03:01:54;5.10;1.00
7564;DHT22;3823;53.586;10.040;2023-02-15T03:04:33;5.20;1.00
7564;DHT22;3823;53.586;10.040;2023-02-15T03:07:04;5.20;1.00
7564;DHT22;3823;53.586;10.040;2023-02-15T03:09:51;5.10;1.00
7564;DHT22;3823;53.586;10.040;2023-02-15T03:12:24;5.00;1.00
7564;DHT22;3823;53.586;10.040;2023-02-15T03:14:56;4.80;1.00
7564;DHT22;3823;53.586;10.040;2023-02-15T03:17:23;4.80;1.00
7564;DHT22;3823;53.586;10.040;2023-02-15T03:19:55;4.70;1.00
7564;DHT22;3823;53.586;10.040;2023-02-15T03:23:12;4.80;1.00
7564;DHT22;3823;53.586;10.040;2023-02-15T03:25:22;4.80;1.00
7564;DHT22;3823;53.586;10.040;2023-02-15T03:28:13;4.90;1.00
7564;DHT22;3823;53.586;10.040;2023-02-15T03:30:43;4.80;1.00
7564;DHT22;3823;53.586;10.040;2023-02-15T03:33:11;4.90;1.00
7564;DHT22;3823;53.586;10.040;2023-02-15T03:36:11;5.00;1.00
7564;DHT22;3823;53.586;10.040;2023-02-15T03:38:43;5.00;1.00
7564;DHT22;3823;53.586;10.040;2023-02-15T03:41:11;5.10;1.00
7564;DHT22;3823;53.586;10.040;2023-02-15T03:48:55;5.00;1.00
7564;DHT22;3823;53.586;10.040;2023-02-15T03:51:26;5.10;1.00
7564;DHT22;3823;53.586;10.040;2023-02-15T03:54:08;5.10;1.00
7564;DHT22;3823;53.586;10.040;2023-02-15T03:56:39;5.00;1.00
7564;DHT22;3823;53.586;10.040;2023-02-15T03:59:05;5.00;1.00
7564;DHT22;3823;53.586;10.040;2023-02-15T04:02:20;5.00;1.00
7564;DHT22;3823;53.586;10.040;2023-02-15T04:04:47;4.90;1.00
7564;DHT22;3823;53.586;10.040;2023-02-15T04:07:13;5.00;1.00
7564;DHT22;3823;53.586;10.040;2023-02-15T04:09:39;5.00;1.00
7564;DHT22;3823;53.586;10.040;2023-02-15T04:12:23;5.10;1.00
7564;DHT22;3823;53.586;10.040;2023-02-15T04:14:49;5.00;1.00
7564;DHT22;3823;53.586;10.040;2023-02-15T04:17:35;4.80;1.00
7564;DHT22;3823;53.586;10.040;2023-02-15T04:20:01;4.80;1.00
7564;DHT22;3823;53.586;10.040;2023-02-15T04:22:45;4.80;1.00
7564;DHT22;3823;53.586;10.040;2023-02-15T04:25:29;4.80;1.00
7564;DHT22;3823;53.586;10.040;2023-02-15T04:27:55;4.70;1.00
7564;DHT22;3823;53.586;10.040;2023-02-15T04:30:23;4.80;1.00
7564;DHT22;3823;53.586;10.040;2023-02-15T04:32:49;4.80;1.00
7564;DHT22;3823;53.586;10.040;2023-02-15T04:35:15;4.60;1.00
7564;DHT22;3823;53.586;10.040;2023-02-15T04:37:42;4.70;1.00
7564;DHT22;3823;53.586;10.040;2023-02-15T04:40:10;4.60;1.00
7564;DHT22;3823;53.586;10.040;2023-02-15T04:42:36;4.70;1.00
7564;DHT22;3823;53.586;10.040;2023-02-15T04:45:02;4.80;1.00
7564;DHT22;3823;53.586;10.040;2023-02-15T04:47:28;4.80;1.00
7564;DHT22;3823;53.586;10.040;2023-02-15T04:49:53;4.80;1.00
7564;DHT22;3823;53.586;10.040;2023-02-15T04:52:19;4.70;1.00
7564;DHT22;3823;53.586;10.040;2023-02-15T04:54:45;4.70;1.00
7564;DHT22;3823;53.586;10.040;2023-02-15T04:57:10;4.50;1.00
7564;DHT22;3823;53.586;10.040;2023-02-15T04:59:36;4.50;1.00
7564;DHT22;3823;53.586;10.040;2023-02-15T05:02:02;4.50;1.00
7564;DHT22;3823;53.586;10.040;2023-02-15T05:04:28;4.50;1.00
7564;DHT22;3823;53.586;10.040;2023-02-15T05:06:53;4.50;1.00
7564;DHT22;3823;53.586;10.040;2023-02-15T05:09:19;4.50;1.00
7564;DHT22;3823;53.586;10.040;2023-02-15T05:11:44;4.60;1.00
7564;DHT22;3823;53.586;10.040;2023-02-15T05:14:10;4.60;1.00
7564;DHT22;3823;53.586;10.040;2023-02-15T05:16:35;4.70;1.00
7564;DHT22;3823;53.586;10.040;2023-02-15T05:19:01;4.70;1.00
7564;DHT22;3823;53.586;10.040;2023-02-15T05:21:27;4.60;1.00
7564;DHT22;3823;53.586;10.040;2023-02-15T05:23:53;4.60;1.00
7564;DHT22;3823;53.586;10.040;2023-02-15T05:26:21;4.50;1.00
7564;DHT22;3823;53.586;10.040;2023-02-15T05:29:05;4.30;1.00
7564;DHT22;3823;53.586;10.040;2023-02-15T05:31:31;4.10;1.00
7564;DHT22;3823;53.586;10.040;2023-02-15T05:33:57;4.10;1.00
7564;DHT22;3823;53.586;10.040;2023-02-15T05:36:23;4.10;1.00
7564;DHT22;3823;53.586;10.040;2023-02-15T05:38:48;4.10;1.00
7564;DHT22;3823;53.586;10.040;2023-02-15T05:41:14;4.10;1.00
7564;DHT22;3823;53.586;10.040;2023-02-15T05:43:41;4.10;1.00
7564;DHT22;3823;53.586;10.040;2023-02-15T05:46:06;4.10;1.00
7564;DHT22;3823;53.586;10.040;2023-02-15T05:48:33;4.10;1.00
7564;DHT22;3823;53.586;10.040;2023-02-15T05:51:10;3.90;1.00
7564;DHT22;3823;53.586;10.040;2023-02-15T05:53:37;3.90;1.00
7564;DHT22;3823;53.586;10.040;2023-02-15T05:56:04;3.90;1.00
7564;DHT22;3823;53.586;10.040;2023-02-15T05:58:33;3.90;1.00
7564;DHT22;3823;53.586;10.040;2023-02-15T06:00:59;3.90;1.00
7564;DHT22;3823;53.586;10.040;2023-02-15T06:03:25;3.80;1.00
7564;DHT22;3823;53.586;10.040;2023-02-15T06:05:52;3.90;1.00
7564;DHT22;3823;53.586;10.040;2023-02-15T06:08:18;3.90;1.00
7564;DHT22;3823;53.586;10.040;2023-02-15T06:10:45;4.00;1.00
7564;DHT22;3823;53.586;10.040;2023-02-15T06:13:11;3.80;1.00
7564;DHT22;3823;53.586;10.040;2023-02-15T06:15:36;3.80;1.00
7564;DHT22;3823;53.586;10.040;2023-02-15T06:18:02;3.70;1.00
7564;DHT22;3823;53.586;10.040;2023-02-15T06:20:28;3.60;1.00
7564;DHT22;3823;53.586;10.040;2023-02-15T06:22:53;3.60;1.00
7564;DHT22;3823;53.586;10.040;2023-02-15T06:25:19;3.50;1.00
7564;DHT22;3823;53.586;10.040;2023-02-15T06:27:45;3.50;1.00
7564;DHT22;3823;53.586;10.040;2023-02-15T06:30:11;3.60;1.00
7564;DHT22;3823;53.586;10.040;2023-02-15T06:32:36;3.60;1.00
7564;DHT22;3823;53.586;10.040;2023-02-15T06:35:02;3.70;1.00
7564;DHT22;3823;53.586;10.040;2023-02-15T06:37:28;3.80;1.00
7564;DHT22;3823;53.586;10.040;2023-02-15T06:39:54;3.90;1.00
7564;DHT22;3823;53.586;10.040;2023-02-15T06:42:20;3.80;1.00
7564;DHT22;3823;53.586;10.040;2023-02-15T06:44:46;3.70;1.00
7564;DHT22;3823;53.586;10.040;2023-02-15T06:47:11;3.70;1.00
7564;DHT22;3823;53.586;10.040;2023-02-15T06:49:37;3.60;1.00
7564;DHT22;3823;53.586;10.040;2023-02-15T06:52:03;3.60;1.00
7564;DHT22;3823;53.586;10.040;2023-02-15T06:54:29;3.80;1.00
7564;DHT22;3823;53.586;10.040;2023-02-15T06:56:55;3.80;1.00
7564;DHT22;3823;53.586;10.040;2023-02-15T06:59:21;3.80;1.00
7564;DHT22;3823;53.586;10.040;2023-02-15T07:01:47;3.70;1.00
7564;DHT22;3823;53.586;10.040;2023-02-15T07:04:12;3.60;1.00
7564;DHT22;3823;53.586;10.040;2023-02-15T07:06:38;3.60;1.00
7564;DHT22;3823;53.586;10.040;2023-02-15T07:09:04;3.60;1.00
7564;DHT22;3823;53.586;10.040;2023-02-15T07:11:30;3.70;1.00
7564;DHT22;3823;53.586;10.040;2023-02-15T07:14:14;3.80;1.00
7564;DHT22;3823;53.586;10.040;2023-02-15T07:16:39;3.70;1.00
7564;DHT22;3823;53.586;10.040;2023-02-15T07:19:05;3.70;1.00
7564;DHT22;3823;53.586;10.040;2023-02-15T07:21:33;3.70;1.00
7564;DHT22;3823;53.586;10.040;2023-02-15T07:23:59;3.80;1.00
7564;DHT22;3823;53.586;10.040;2023-02-15T07:26:25;3.80;1.00
7564;DHT22;3823;53.586;10.040;2023-02-15T07:28:51;3.80;1.00
7564;DHT22;3823;53.586;10.040;2023-02-15T07:31:16;3.80;1.00
7564;DHT22;3823;53.586;10.040;2023-02-15T07:33:42;3.70;1.00
7564;DHT22;3823;53.586;10.040;2023-02-15T07:36:08;3.70;1.00
7564;DHT22;3823;53.586;10.040;2023-02-15T07:38:38;3.60;1.00
7564;DHT22;3823;53.586;10.040;2023-02-15T07:41:06;3.60;1.00
7564;DHT22;3823;53.586;10.040;2023-02-15T07:43:35;3.50;1.00
7564;DHT22;3823;53.586;10.040;2023-02-15T07:46:02;3.50;1.00
7564;DHT22;3823;53.586;10.040;2023-02-15T07:48:28;3.60;1.00
7564;DHT22;3823;53.586;10.040;2023-02-15T07:50:54;3.60;1.00
7564;DHT22;3823;53.586;10.040;2023-02-15T07:53:23;3.70;1.00
7564;DHT22;3823;53.586;10.040;2023-02-15T07:55:49;3.70;1.00
7564;DHT22;3823;53.586;10.040;2023-02-15T07:58:14;3.70;1.00
7564;DHT22;3823;53.586;10.040;2023-02-15T08:00:40;3.80;1.00
7564;DHT22;3823;53.586;10.040;2023-02-15T08:03:27;3.70;1.00
7564;DHT22;3823;53.586;10.040;2023-02-15T08:05:58;3.50;1.00
7564;DHT22;3823;53.586;10.040;2023-02-15T08:08:25;3.50;1.00
7564;DHT22;3823;53.586;10.040;2023-02-15T08:11:02;3.50;1.00
7564;DHT22;3823;53.586;10.040;2023-02-15T08:13:47;3.50;1.00
7564;DHT22;3823;53.586;10.040;2023-02-15T08:16:24;3.40;1.00
7564;DHT22;3823;53.586;10.040;2023-02-15T08:18:50;3.50;1.00
7564;DHT22;3823;53.586;10.040;2023-02-15T08:21:16;3.60;1.00
7564;DHT22;3823;53.586;10.040;2023-02-15T08:23:42;3.70;1.00
7564;DHT22;3823;53.586;10.040;2023-02-15T08:26:08;3.70;1.00
7564;DHT22;3823;53.586;10.040;2023-02-15T08:28:33;3.50;1.00
7564;DHT22;3823;53.586;10.040;2023-02-15T08:31:10;3.50;1.00
7564;DHT22;3823;53.586;10.040;2023-02-15T08:33:37;3.50;1.00
7564;DHT22;3823;53.586;10.040;2023-02-15T08:36:08;3.40;1.00
7564;DHT22;3823;53.586;10.040;2023-02-15T08:38:35;3.30;1.00
7564;DHT22;3823;53.586;10.040;2023-02-15T08:43:37;3.20;1.00
7564;DHT22;3823;53.586;10.040;2023-02-15T08:46:04;3.20;1.00
7564;DHT22;3823;53.586;10.040;2023-02-15T08:48:30;3.20;1.00
7564;DHT22;3823;53.586;10.040;2023-02-15T08:50:56;3.30;1.00
7564;DHT22;3823;53.586;10.040;2023-02-15T08:53:21;3.30;1.00
7564;DHT22;3823;53.586;10.040;2023-02-15T08:55:54;3.30;1.00
7564;DHT22;3823;53.586;10.040;2023-02-15T08:58:20;3.20;1.00
7564;DHT22;3823;53.586;10.040;2023-02-15T09:00:46;3.10;1.00
7564;DHT22;3823;53.586;10.040;2023-02-15T09:03:12;3.10;1.00
7564;DHT22;3823;53.586;10.040;2023-02-15T09:05:37;3.20;1.00
7564;DHT22;3823;53.586;10.040;2023-02-15T09:08:03;3.30;1.00
7564;DHT22;3823;53.586;10.040;2023-02-15T09:10:28;3.50;1.00
7564;DHT22;3823;53.586;10.040;2023-02-15T09:12:54;3.50;1.00
7564;DHT22;3823;53.586;10.040;2023-02-15T09:15:19;3.50;1.00
7564;DHT22;3823;53.586;10.040;2023-02-15T09:17:45;3.50;1.00
7564;DHT22;3823;53.586;10.040;2023-02-15T09:20:11;3.50;1.00
7564;DHT22;3823;53.586;10.040;2023-02-15T09:22:36;3.40;1.00
7564;DHT22;3823;53.586;10.040;2023-02-15T09:25:02;3.20;1.00
7564;DHT22;3823;53.586;10.040;2023-02-15T09:27:28;3.30;1.00
7564;DHT22;3823;53.586;10.040;2023-02-15T09:29:54;3.20;1.00
7564;DHT22;3823;53.586;10.040;2023-02-15T09:32:19;3.30;1.00
7564;DHT22;3823;53.586;10.040;2023-02-15T09:34:45;3.20;1.00
7564;DHT22;3823;53.586;10.040;2023-02-15T09:37:11;3.00;1.00
7564;DHT22;3823;53.586;10.040;2023-02-15T09:39:40;3.10;1.00
7564;DHT22;3823;53.586;10.040;2023-02-15T09:42:39;3.20;1.00
7564;DHT22;3823;53.586;10.040;2023-02-15T09:58:57;3.80;1.00
7564;DHT22;3823;53.586;10.040;2023-02-15T10:01:48;3.80;1.00
7564;DHT22;3823;53.586;10.040;2023-02-15T10:04:33;3.90;1.00
7564;DHT22;3823;53.586;10.040;2023-02-15T10:15:58;3.70;1.00
7564;DHT22;3823;53.586;10.040;2023-02-15T10:21:15;3.70;1.00
7564;DHT22;3823;53.586;10.040;2023-02-15T10:23:50;3.80;1.00
7564;DHT22;3823;53.586;10.040;2023-02-15T10:26:20;3.70;1.00
7564;DHT22;3823;53.586;10.040;2023-02-15T10:28:48;3.80;1.00
7564;DHT22;3823;53.586;10.040;2023-02-15T10:31:22;4.00;1.00
7564;DHT22;3823;53.586;10.040;2023-02-15T10:34:02;3.80;1.00
7564;DHT22;3823;53.586;10.040;2023-02-15T10:36:52;3.90;1.00
7564;DHT22;3823;53.586;10.040;2023-02-15T10:53:29;4.40;1.00
7564;DHT22;3823;53.586;10.040;2023-02-15T10:59:02;4.40;1.00
7564;DHT22;3823;53.586;10.040;2023-02-15T11:04:45;4.00;1.00
7564;DHT22;3823;53.586;10.040;2023-02-15T11:07:24;4.10;1.00
7564;DHT22;3823;53.586;10.040;2023-02-15T11:10:39;4.00;1.00
7564;DHT22;3823;53.586;10.040;2023-02-15T11:12:41;4.00;1.00
7564;DHT22;3823;53.586;10.040;2023-02-15T11:17:56;4.30;1.00
7564;DHT22;3823;53.586;10.040;2023-02-15T11:23:15;4.10;1.00
7564;DHT22;3823;53.586;10.040;2023-02-15T11:25:43;4.30;1.00
7564;DHT22;3823;53.586;10.040;2023-02-15T11:28:19;4.50;1.00
7564;DHT22;3823;53.586;10.040;2023-02-15T11:30:51;4.30;1.00
7564;DHT22;3823;53.586;10.040;2023-02-15T11:33:30;4.30;1.00
7564;DHT22;3823;53.586;10.040;2023-02-15T11:36:05;4.50;1.00
7564;DHT22;3823;53.586;10.040;2023-02-15T11:38:32;4.60;1.00
7564;DHT22;3823;53.586;10.040;2023-02-15T11:41:11;4.80;1.00
7564;DHT22;3823;53.586;10.040;2023-02-15T11:43:44;4.80;1.00
7564;DHT22;3823;53.586;10.040;2023-02-15T11:46:13;4.90;1.00
7564;DHT22;3823;53.586;10.040;2023-02-15T11:48:40;4.70;1.00
7564;DHT22;3823;53.586;10.040;2023-02-15T11:51:08;4.70;1.00
7564;DHT22;3823;53.586;10.040;2023-02-15T11:53:37;4.80;1.00
7564;DHT22;3823;53.586;10.040;2023-02-15T11:56:03;5.00;1.00
7564;DHT22;3823;53.586;10.040;2023-02-15T11:58:46;5.30;1.00
7564;DHT22;3823;53.586;10.040;2023-02-15T12:04:36;5.30;1.00
7564;DHT22;3823;53.586;10.040;2023-02-15T12:09:50;5.60;1.00
7564;DHT22;3823;53.586;10.040;2023-02-15T12:12:30;5.70;1.00
7564;DHT22;3823;53.586;10.040;2023-02-15T12:15:01;5.70;1.00
7564;DHT22;3823;53.586;10.040;2023-02-15T12:17:38;5.80;1.00
7564;DHT22;3823;53.586;10.040;2023-02-15T12:20:28;5.90;1.00
7564;DHT22;3823;53.586;10.040;2023-02-15T12:23:12;6.10;99.90
7564;DHT22;3823;53.586;10.040;2023-02-15T12:25:53;6.30;99.90
7564;DHT22;3823;53.586;10.040;2023-02-15T12:28:34;6.50;99.90
7564;DHT22;3823;53.586;10.040;2023-02-15T12:31:03;6.70;99.90
7564;DHT22;3823;53.586;10.040;2023-02-15T12:33:34;6.90;99.90
7564;DHT22;3823;53.586;10.040;2023-02-15T12:36:06;7.00;99.90
7564;DHT22;3823;53.586;10.040;2023-02-15T12:38:36;6.80;99.90
7564;DHT22;3823;53.586;10.040;2023-02-15T12:41:25;7.00;99.90
7564;DHT22;3823;53.586;10.040;2023-02-15T12:49:40;6.90;99.90
7564;DHT22;3823;53.586;10.040;2023-02-15T12:52:23;7.10;99.90
7564;DHT22;3823;53.586;10.040;2023-02-15T12:54:50;7.30;99.90
7564;DHT22;3823;53.586;10.040;2023-02-15T12:57:32;7.20;99.90
7564;DHT22;3823;53.586;10.040;2023-02-15T13:00:05;7.30;99.90
7564;DHT22;3823;53.586;10.040;2023-02-15T13:02:57;7.20;99.90
7564;DHT22;3823;53.586;10.040;2023-02-15T13:05:35;7.30;99.90
7564;DHT22;3823;53.586;10.040;2023-02-15T13:08:16;7.50;99.90
7564;DHT22;3823;53.586;10.040;2023-02-15T13:11:00;7.60;99.90
7564;DHT22;3823;53.586;10.040;2023-02-15T13:13:29;7.60;99.90
7564;DHT22;3823;53.586;10.040;2023-02-15T13:15:59;7.60;99.90
7564;DHT22;3823;53.586;10.040;2023-02-15T13:18:31;7.60;99.90
7564;DHT22;3823;53.586;10.040;2023-02-15T13:21:15;7.50;99.90
7564;DHT22;3823;53.586;10.040;2023-02-15T13:23:48;7.60;99.90
7564;DHT22;3823;53.586;10.040;2023-02-15T13:26:22;7.70;99.90
7564;DHT22;3823;53.586;10.040;2023-02-15T13:28:52;7.70;99.90
7564;DHT22;3823;53.586;10.040;2023-02-15T13:31:20;7.60;99.90
7564;DHT22;3823;53.586;10.040;2023-02-15T13:33:53;7.70;99.90
7564;DHT22;3823;53.586;10.040;2023-02-15T13:47:22;8.00;99.90
7564;DHT22;3823;53.586;10.040;2023-02-15T13:55:39;8.00;99.90
7564;DHT22;3823;53.586;10.040;2023-02-15T13:58:17;8.00;99.90
7564;DHT22;3823;53.586;10.040;2023-02-15T14:06:45;8.10;99.90
7564;DHT22;3823;53.586;10.040;2023-02-15T14:09:21;8.20;99.90
7564;DHT22;3823;53.586;10.040;2023-02-15T14:12:11;8.10;99.90
7564;DHT22;3823;53.586;10.040;2023-02-15T14:17:33;8.20;99.90
7564;DHT22;3823;53.586;10.040;2023-02-15T14:25:48;8.10;99.90
7564;DHT22;3823;53.586;10.040;2023-02-15T14:28:21;8.20;99.90
7564;DHT22;3823;53.586;10.040;2023-02-15T14:30:53;8.30;99.90
7564;DHT22;3823;53.586;10.040;2023-02-15T14:35:51;8.40;99.90
7564;DHT22;3823;53.586;10.040;2023-02-15T14:38:38;8.50;99.90
7564;DHT22;3823;53.586;10.040;2023-02-15T14:41:15;8.60;99.90
7564;DHT22;3823;53.586;10.040;2023-02-15T14:44:01;8.50;99.90
7564;DHT22;3823;53.586;10.040;2023-02-15T14:49:26;8.60;99.90
7564;DHT22;3823;53.586;10.040;2023-02-15T14:51:57;8.30;99.90
7564;DHT22;3823;53.586;10.040;2023-02-15T14:59:43;8.10;99.90
7564;DHT22;3823;53.586;10.040;2023-02-15T15:15:10;8.20;99.90
7564;DHT22;3823;53.586;10.040;2023-02-15T15:20:13;8.20;99.90
7564;DHT22;3823;53.586;10.040;2023-02-15T15:22:41;8.20;99.90
7564;DHT22;3823;53.586;10.040;2023-02-15T15:25:11;8.00;99.90
7564;DHT22;3823;53.586;10.040;2023-02-15T15:27:58;7.90;99.90
7564;DHT22;3823;53.586;10.040;2023-02-15T15:49:20;7.70;99.90
7564;DHT22;3823;53.586;10.040;2023-02-15T15:51:47;7.60;99.90
7564;DHT22;3823;53.586;10.040;2023-02-15T15:54:22;7.60;99.90
7564;DHT22;3823;53.586;10.040;2023-02-15T15:56:53;7.50;99.90
7564;DHT22;3823;53.586;10.040;2023-02-15T15:59:28;7.50;99.90
7564;DHT22;3823;53.586;10.040;2023-02-15T16:01:54;7.40;1.00
7564;DHT22;3823;53.586;10.040;2023-02-15T16:04:31;7.40;1.00
7564;DHT22;3823;53.586;10.040;2023-02-15T16:10:16;7.30;1.00
7564;DHT22;3823;53.586;10.040;2023-02-15T16:12:47;7.30;1.00
7564;DHT22;3823;53.586;10.040;2023-02-15T16:15:19;7.20;1.00
7564;DHT22;3823;53.586;10.040;2023-02-15T16:17:48;7.10;1.00
7564;DHT22;3823;53.586;10.040;2023-02-15T16:20:23;7.10;1.00
7564;DHT22;3823;53.586;10.040;2023-02-15T16:22:54;7.10;1.00
7564;DHT22;3823;53.586;10.040;2023-02-15T16:25:39;7.10;1.00
7564;DHT22;3823;53.586;10.040;2023-02-15T16:28:12;7.00;1.00
7564;DHT22;3823;53.586;10.040;2023-02-15T16:30:38;7.00;1.00
7564;DHT22;3823;53.586;10.040;2023-02-15T16:33:13;7.00;1.00
7564;DHT22;3823;53.586;10.040;2023-02-15T16:35:52;6.90;1.00
7564;DHT22;3823;53.586;10.040;2023-02-15T16:38:25;6.90;1.00
7564;DHT22;3823;53.586;10.040;2023-02-15T16:40:55;6.90;1.00
7564;DHT22;3823;53.586;10.040;2023-02-15T16:43:26;6.90;1.00
7564;DHT22;3823;53.586;10.040;2023-02-15T16:46:02;6.90;1.00
7564;DHT22;3823;53.586;10.040;2023-02-15T16:48:28;6.80;1.00
7564;DHT22;3823;53.586;10.040;2023-02-15T16:50:56;6.80;1.00
7564;DHT22;3823;53.586;10.040;2023-02-15T16:53:25;6.70;1.00
7564;DHT22;3823;53.586;10.040;2023-02-15T16:55:55;6.70;1.00
7564;DHT22;3823;53.586;10.040;2023-02-15T16:58:27;6.60;1.00
7564;DHT22;3823;53.586;10.040;2023-02-15T17:00:58;6.60;1.00
7564;DHT22;3823;53.586;10.040;2023-02-15T17:03:25;6.60;1.00
7564;DHT22;3823;53.586;10.040;2023-02-15T17:05:54;6.60;1.00
7564;DHT22;3823;53.586;10.040;2023-02-15T17:11:13;6.50;1.00
7564;DHT22;3823;53.586;10.040;2023-02-15T17:13:39;6.50;1.00
7564;DHT22;3823;53.586;10.040;2023-02-15T17:18:49;6.40;1.00
7564;DHT22;3823;53.586;10.040;2023-02-15T17:21:19;6.40;1.00
7564;DHT22;3823;53.586;10.040;2023-02-15T17:23:47;6.40;1.00
7564;DHT22;3823;53.586;10.040;2023-02-15T17:26:32;6.40;1.00
7564;DHT22;3823;53.586;10.040;2023-02-15T17:31:36;6.50;1.00
7564;DHT22;3823;53.586;10.040;2023-02-15T17:34:01;6.50;1.00
7564;DHT22;3823;53.586;10.040;2023-02-15T17:36:29;6.50;1.00
7564;DHT22;3823;53.586;10.040;2023-02-15T17:41:25;6.50;1.00
7564;DHT22;3823;53.586;10.040;2023-02-15T17:43:50;6.50;1.00
7564;DHT22;3823;53.586;10.040;2023-02-15T17:46:16;6.40;1.00
7564;DHT22;3823;53.586;10.040;2023-02-15T17:48:46;6.30;1.00
7564;DHT22;3823;53.586;10.040;2023-02-15T17:51:13;6.30;1.00
7564;DHT22;3823;53.586;10.040;2023-02-15T17:53:41;6.30;1.00
7564;DHT22;3823;53.586;10.040;2023-02-15T17:56:26;6.40;1.00
7564;DHT22;3823;53.586;10.040;2023-02-15T17:58:52;6.40;1.00
7564;DHT22;3823;53.586;10.040;2023-02-15T18:01:19;6.40;1.00
7564;DHT22;3823;53.586;10.040;2023-02-15T18:04:07;6.30;1.00
7564;DHT22;3823;53.586;10.040;2023-02-15T18:06:53;6.40;1.00
7564;DHT22;3823;53.586;10.040;2023-02-15T18:09:37;6.20;1.00
7564;DHT22;3823;53.586;10.040;2023-02-15T18:14:50;6.10;1.00
7564;DHT22;3823;53.586;10.040;2023-02-15T18:17:17;6.00;1.00
7564;DHT22;3823;53.586;10.040;2023-02-15T18:19:46;5.90;1.00
7564;DHT22;3823;53.586;10.040;2023-02-15T18:22:17;5.80;1.00
7564;DHT22;3823;53.586;10.040;2023-02-15T18:24:43;5.80;1.00
7564;DHT22;3823;53.586;10.040;2023-02-15T18:27:11;5.80;1.00
7564;DHT22;3823;53.586;10.040;2023-02-15T18:29:37;5.80;1.00
7564;DHT22;3823;53.586;10.040;2023-02-15T18:32:06;5.80;1.00
7564;DHT22;3823;53.586;10.040;2023-02-15T18:34:37;5.80;1.00
7564;DHT22;3823;53.586;10.040;2023-02-15T18:37:05;5.80;1.00
7564;DHT22;3823;53.586;10.040;2023-02-15T18:39:39;5.70;1.00
7564;DHT22;3823;53.586;10.040;2023-02-15T18:42:22;5.70;1.00
7564;DHT22;3823;53.586;10.040;2023-02-15T18:44:49;5.70;1.00
7564;DHT22;3823;53.586;10.040;2023-02-15T18:47:18;5.60;1.00
7564;DHT22;3823;53.586;10.040;2023-02-15T18:49:43;5.60;1.00
7564;DHT22;3823;53.586;10.040;2023-02-15T18:52:19;5.60;1.00
7564;DHT22;3823;53.586;10.040;2023-02-15T18:54:46;5.60;1.00
7564;DHT22;3823;53.586;10.040;2023-02-15T18:57:13;5.60;1.00
7564;DHT22;3823;53.586;10.040;2023-02-15T18:59:39;5.60;1.00
7564;DHT22;3823;53.586;10.040;2023-02-15T19:02:16;5.70;1.00
7564;DHT22;3823;53.586;10.040;2023-02-15T19:04:43;5.60;1.00
7564;DHT22;3823;53.586;10.040;2023-02-15T19:07:22;5.50;1.00
7564;DHT22;3823;53.586;10.040;2023-02-15T19:09:52;5.60;1.00
7564;DHT22;3823;53.586;10.040;2023-02-15T19:12:19;5.70;1.00
7564;DHT22;3823;53.586;10.040;2023-02-15T19:14:45;5.70;1.00
7564;DHT22;3823;53.586;10.040;2023-02-15T19:17:14;5.70;1.00
7564;DHT22;3823;53.586;10.040;2023-02-15T19:19:40;5.60;1.00
7564;DHT22;3823;53.586;10.040;2023-02-15T19:22:11;5.60;1.00
7564;DHT22;3823;53.586;10.040;2023-02-15T19:24:39;5.60;1.00
7564;DHT22;3823;53.586;10.040;2023-02-15T19:27:08;5.60;1.00
7564;DHT22;3823;53.586;10.040;2023-02-15T19:29:42;5.60;1.00
7564;DHT22;3823;53.586;10.040;2023-02-15T19:32:10;5.60;1.00
7564;DHT22;3823;53.586;10.040;2023-02-15T19:34:35;5.60;1.00
7564;DHT22;3823;53.586;10.040;2023-02-15T19:37:01;5.50;1.00
7564;DHT22;3823;53.586;10.040;2023-02-15T19:39:38;5.50;1.00
7564;DHT22;3823;53.586;10.040;2023-02-15T19:42:05;5.40;1.00
7564;DHT22;3823;53.586;10.040;2023-02-15T19:44:30;5.40;1.00
7564;DHT22;3823;53.586;10.040;2023-02-15T19:46:56;5.20;1.00
7564;DHT22;3823;53.586;10.040;2023-02-15T19:49:22;5.20;1.00